Current | Forecast
Updated: 8:40 PM JST on June 26, 2017
Observed at Obihiro, Japan
Temperature 54°F
Humidity 88%
Dew Point 50°F
Wind SSE at 7 mph
Pressure 29.77 in (Steady)
Conditions Mostly Cloudy
Visibility 3.7 miles
UV 0 out of 16
Clouds (FEW) : 400 ft
Mostly Cloudy (BKN) : 500 ft
Yesterday's Maximum 66°F
Yesterday's Minimum 55°F approx.
Yesterday's Heating Degree Days 4 approx.
Sunrise3:54 AM JST
Sunset7:09 PM JST
Moon Rise6:08 AM JST
Moon Set8:53 PM JST
Moon PhaseMoon Phase
Waxing Crescent
Raw METARSPECI RJCB 261140Z 16006KT 140V200 6000 FEW004 BKN005 12/10 Q1008 RMK 1ST004 7ST005 A2979


Monday
. High: 60° F.
Tuesday
. High: 57° F.
Wednesday
. High: 55° F.
Thursday
. High: 55° F.
Friday
. High: 53° F.
Saturday
. High: 53° F.
Sunday
. High: 55° F.
Monday
. High: 51° F.

Units: English | Metric

Find the Weather for any City, State or Zipcode, or Country:

U.S. State List | Severe Weather | Tropical Storms | Ski Conditions
United States | Canada | Central America | South America | Asia | Europe | Australia | Africa | Islands

Weather Underground

© Copyright 2017
The Weather Company, LLC